sensor_id;sensor_type;location;lat;lon;timestamp;pressure;altitude;pressure_sealevel;temperature;humidity
53522;BME280;39398;48.382;9.802;2023-04-01T00:03:06;92594.50;;;6.59;100.00
53522;BME280;39398;48.382;9.802;2023-04-01T00:08:09;92581.19;;;6.60;100.00
53522;BME280;39398;48.382;9.802;2023-04-01T00:13:12;92590.06;;;6.52;100.00
53522;BME280;39398;48.382;9.802;2023-04-01T00:18:13;92594.09;;;6.48;100.00
53522;BME280;39398;48.382;9.802;2023-04-01T00:23:17;92584.97;;;6.38;100.00
53522;BME280;39398;48.382;9.802;2023-04-01T00:28:19;92588.22;;;6.40;100.00
53522;BME280;39398;48.382;9.802;2023-04-01T00:33:21;92574.31;;;6.46;100.00
53522;BME280;39398;48.382;9.802;2023-04-01T00:38:24;92586.16;;;6.28;100.00
53522;BME280;39398;48.382;9.802;2023-04-01T00:43:25;92586.41;;;6.47;100.00
53522;BME280;39398;48.382;9.802;2023-04-01T00:48:29;92574.50;;;6.31;100.00
53522;BME280;39398;48.382;9.802;2023-04-01T00:53:34;92560.59;;;6.37;100.00
53522;BME280;39398;48.382;9.802;2023-04-01T00:58:40;92568.03;;;6.20;100.00
53522;BME280;39398;48.382;9.802;2023-04-01T01:03:43;92563.97;;;6.18;100.00
53522;BME280;39398;48.382;9.802;2023-04-01T01:09:06;92570.25;;;6.23;100.00
53522;BME280;39398;48.382;9.802;2023-04-01T01:14:20;92565.19;;;6.15;100.00
53522;BME280;39398;48.382;9.802;2023-04-01T01:19:46;92564.56;;;6.00;100.00
53522;BME280;39398;48.382;9.802;2023-04-01T01:25:04;92560.31;;;6.05;100.00
53522;BME280;39398;48.382;9.802;2023-04-01T01:30:24;92559.13;;;6.15;100.00
53522;BME280;39398;48.382;9.802;2023-04-01T01:35:34;92568.66;;;6.29;100.00
53522;BME280;39398;48.382;9.802;2023-04-01T01:40:41;92551.88;;;6.03;100.00
53522;BME280;39398;48.382;9.802;2023-04-01T01:45:46;92551.53;;;5.78;100.00
53522;BME280;39398;48.382;9.802;2023-04-01T01:50:51;92554.69;;;6.09;100.00
53522;BME280;39398;48.382;9.802;2023-04-01T01:55:53;92561.75;;;6.15;100.00
53522;BME280;39398;48.382;9.802;2023-04-01T02:00:56;92551.63;;;5.98;100.00
53522;BME280;39398;48.382;9.802;2023-04-01T02:06:00;92551.41;;;5.93;100.00
53522;BME280;39398;48.382;9.802;2023-04-01T02:11:04;92550.16;;;5.82;100.00
53522;BME280;39398;48.382;9.802;2023-04-01T02:16:11;92555.59;;;5.81;100.00
53522;BME280;39398;48.382;9.802;2023-04-01T02:21:16;92545.13;;;5.88;100.00
53522;BME280;39398;48.382;9.802;2023-04-01T02:26:20;92553.47;;;6.11;100.00
53522;BME280;39398;48.382;9.802;2023-04-01T02:31:23;92558.28;;;5.94;100.00
53522;BME280;39398;48.382;9.802;2023-04-01T02:36:26;92566.13;;;5.94;100.00
53522;BME280;39398;48.382;9.802;2023-04-01T02:41:27;92568.38;;;6.04;100.00
53522;BME280;39398;48.382;9.802;2023-04-01T02:46:29;92569.88;;;5.78;100.00
53522;BME280;39398;48.382;9.802;2023-04-01T02:51:32;92564.28;;;5.88;100.00
53522;BME280;39398;48.382;9.802;2023-04-01T02:56:34;92569.59;;;6.01;100.00
53522;BME280;39398;48.382;9.802;2023-04-01T03:01:35;92582.91;;;6.00;100.00
53522;BME280;39398;48.382;9.802;2023-04-01T03:06:38;92566.69;;;5.90;100.00
53522;BME280;39398;48.382;9.802;2023-04-01T03:11:39;92574.41;;;5.56;100.00
53522;BME280;39398;48.382;9.802;2023-04-01T03:16:41;92576.63;;;5.59;100.00
53522;BME280;39398;48.382;9.802;2023-04-01T03:21:44;92575.50;;;5.75;100.00
53522;BME280;39398;48.382;9.802;2023-04-01T03:26:45;92577.00;;;5.50;100.00
53522;BME280;39398;48.382;9.802;2023-04-01T03:31:47;92581.63;;;5.54;100.00
53522;BME280;39398;48.382;9.802;2023-04-01T03:36:50;92585.06;;;5.55;100.00
53522;BME280;39398;48.382;9.802;2023-04-01T03:41:51;92586.66;;;5.49;100.00
53522;BME280;39398;48.382;9.802;2023-04-01T03:46:53;92581.25;;;5.57;100.00
53522;BME280;39398;48.382;9.802;2023-04-01T03:51:55;92577.81;;;5.57;100.00
53522;BME280;39398;48.382;9.802;2023-04-01T03:56:57;92585.06;;;5.55;100.00
53522;BME280;39398;48.382;9.802;2023-04-01T04:01:58;92588.19;;;5.72;100.00
53522;BME280;39398;48.382;9.802;2023-04-01T04:07:01;92579.69;;;5.63;100.00
53522;BME280;39398;48.382;9.802;2023-04-01T04:12:03;92568.19;;;5.64;100.00
53522;BME280;39398;48.382;9.802;2023-04-01T04:17:04;92577.44;;;5.60;100.00
53522;BME280;39398;48.382;9.802;2023-04-01T04:22:07;92573.09;;;5.39;100.00
53522;BME280;39398;48.382;9.802;2023-04-01T04:27:09;92562.75;;;5.59;100.00
53522;BME280;39398;48.382;9.802;2023-04-01T04:32:10;92571.31;;;5.40;100.00
53522;BME280;39398;48.382;9.802;2023-04-01T04:37:13;92566.25;;;5.38;100.00
53522;BME280;39398;48.382;9.802;2023-04-01T04:42:15;92570.56;;;5.52;100.00
53522;BME280;39398;48.382;9.802;2023-04-01T04:47:16;92562.31;;;5.49;100.00
53522;BME280;39398;48.382;9.802;2023-04-01T04:52:19;92566.53;;;5.50;100.00
53522;BME280;39398;48.382;9.802;2023-04-01T04:57:21;92557.00;;;5.42;100.00
53522;BME280;39398;48.382;9.802;2023-04-01T05:02:22;92554.84;;;5.46;100.00
53522;BME280;39398;48.382;9.802;2023-04-01T05:07:25;92557.25;;;5.47;100.00
53522;BME280;39398;48.382;9.802;2023-04-01T05:12:27;92573.34;;;5.44;100.00
53522;BME280;39398;48.382;9.802;2023-04-01T05:17:28;92569.88;;;5.37;100.00
53522;BME280;39398;48.382;9.802;2023-04-01T05:22:31;92577.59;;;5.52;100.00
53522;BME280;39398;48.382;9.802;2023-04-01T05:27:33;92570.09;;;5.42;100.00
53522;BME280;39398;48.382;9.802;2023-04-01T05:32:34;92572.72;;;5.42;100.00
53522;BME280;39398;48.382;9.802;2023-04-01T05:37:37;92577.03;;;5.56;100.00
53522;BME280;39398;48.382;9.802;2023-04-01T05:42:39;92572.34;;;5.52;100.00
53522;BME280;39398;48.382;9.802;2023-04-01T05:47:40;92575.91;;;5.72;100.00
53522;BME280;39398;48.382;9.802;2023-04-01T05:52:43;92578.78;;;5.84;100.00
53522;BME280;39398;48.382;9.802;2023-04-01T05:57:45;92568.09;;;5.86;100.00
53522;BME280;39398;48.382;9.802;2023-04-01T06:02:47;92557.81;;;5.84;100.00
53522;BME280;39398;48.382;9.802;2023-04-01T06:07:51;92560.25;;;5.92;100.00
53522;BME280;39398;48.382;9.802;2023-04-01T06:13:01;92571.00;;;5.97;100.00
53522;BME280;39398;48.382;9.802;2023-04-01T06:18:45;92563.16;;;6.04;100.00
53522;BME280;39398;48.382;9.802;2023-04-01T06:23:59;92558.31;;;6.01;100.00
53522;BME280;39398;48.382;9.802;2023-04-01T06:29:33;92560.31;;;6.05;100.00
53522;BME280;39398;48.382;9.802;2023-04-01T06:34:55;92560.19;;;6.27;100.00
53522;BME280;39398;48.382;9.802;2023-04-01T06:40:18;92561.94;;;6.07;100.00
53522;BME280;39398;48.382;9.802;2023-04-01T06:45:31;92566.19;;;6.08;100.00
53522;BME280;39398;48.382;9.802;2023-04-01T06:50:40;92557.53;;;6.20;100.00
53522;BME280;39398;48.382;9.802;2023-04-01T06:55:47;92559.56;;;6.25;100.00
53522;BME280;39398;48.382;9.802;2023-04-01T07:00:53;92559.63;;;6.45;100.00
53522;BME280;39398;48.382;9.802;2023-04-01T07:05:56;92554.53;;;6.30;100.00
53522;BME280;39398;48.382;9.802;2023-04-01T07:11:02;92544.69;;;6.85;100.00
53522;BME280;39398;48.382;9.802;2023-04-01T07:16:11;92532.41;;;6.92;100.00
53522;BME280;39398;48.382;9.802;2023-04-01T07:21:26;92535.94;;;7.44;100.00
53522;BME280;39398;48.382;9.802;2023-04-01T07:26:33;92536.81;;;6.98;100.00
53522;BME280;39398;48.382;9.802;2023-04-01T07:32:01;92546.25;;;7.26;100.00
53522;BME280;39398;48.382;9.802;2023-04-01T07:37:11;92545.28;;;7.14;100.00
53522;BME280;39398;48.382;9.802;2023-04-01T07:42:23;92546.91;;;6.48;100.00
53522;BME280;39398;48.382;9.802;2023-04-01T07:47:41;92556.97;;;7.05;100.00
53522;BME280;39398;48.382;9.802;2023-04-01T07:52:53;92551.31;;;7.28;100.00
53522;BME280;39398;48.382;9.802;2023-04-01T07:58:02;92549.94;;;7.12;100.00
53522;BME280;39398;48.382;9.802;2023-04-01T08:03:24;92544.03;;;7.30;100.00
53522;BME280;39398;48.382;9.802;2023-04-01T08:08:39;92541.84;;;7.07;100.00
53522;BME280;39398;48.382;9.802;2023-04-01T08:13:50;92541.03;;;7.13;100.00
53522;BME280;39398;48.382;9.802;2023-04-01T08:18:59;92542.88;;;7.12;100.00
53522;BME280;39398;48.382;9.802;2023-04-01T08:24:11;92552.72;;;7.23;100.00
53522;BME280;39398;48.382;9.802;2023-04-01T08:29:21;92550.53;;;7.01;100.00
53522;BME280;39398;48.382;9.802;2023-04-01T08:34:26;92566.69;;;6.97;100.00
53522;BME280;39398;48.382;9.802;2023-04-01T08:39:32;92552.56;;;6.92;100.00
53522;BME280;39398;48.382;9.802;2023-04-01T08:45:04;92548.34;;;6.78;100.00
53522;BME280;39398;48.382;9.802;2023-04-01T08:50:26;92557.19;;;7.03;100.00
53522;BME280;39398;48.382;9.802;2023-04-01T08:55:40;92543.88;;;6.98;100.00
53522;BME280;39398;48.382;9.802;2023-04-01T09:00:49;92542.06;;;6.98;100.00
53522;BME280;39398;48.382;9.802;2023-04-01T09:06:22;92548.31;;;7.11;100.00
53522;BME280;39398;48.382;9.802;2023-04-01T09:11:33;92554.78;;;6.88;100.00
53522;BME280;39398;48.382;9.802;2023-04-01T09:17:17;92572.34;;;6.68;100.00
53522;BME280;39398;48.382;9.802;2023-04-01T09:22:33;92567.28;;;7.06;100.00
53522;BME280;39398;48.382;9.802;2023-04-01T09:27:44;92565.09;;;6.96;100.00
53522;BME280;39398;48.382;9.802;2023-04-01T09:33:16;92558.63;;;6.92;100.00
53522;BME280;39398;48.382;9.802;2023-04-01T09:38:22;92561.84;;;6.94;100.00
53522;BME280;39398;48.382;9.802;2023-04-01T09:43:30;92568.31;;;7.05;100.00
53522;BME280;39398;48.382;9.802;2023-04-01T09:49:00;92565.47;;;7.07;100.00
53522;BME280;39398;48.382;9.802;2023-04-01T09:54:17;92570.13;;;6.85;100.00
53522;BME280;39398;48.382;9.802;2023-04-01T09:59:49;92577.78;;;6.99;100.00
53522;BME280;39398;48.382;9.802;2023-04-01T10:05:27;92570.94;;;7.05;100.00
53522;BME280;39398;48.382;9.802;2023-04-01T10:10:47;92581.81;;;7.15;100.00
53522;BME280;39398;48.382;9.802;2023-04-01T10:16:23;92575.97;;;6.93;100.00
53522;BME280;39398;48.382;9.802;2023-04-01T10:22:08;92567.72;;;6.90;100.00
53522;BME280;39398;48.382;9.802;2023-04-01T10:27:46;92581.41;;;7.18;100.00
53522;BME280;39398;48.382;9.802;2023-04-01T10:39:00;92582.41;;;7.17;100.00
53522;BME280;39398;48.382;9.802;2023-04-01T10:44:52;92584.63;;;7.14;100.00
53522;BME280;39398;48.382;9.802;2023-04-01T10:50:25;92576.50;;;7.49;100.00
53522;BME280;39398;48.382;9.802;2023-04-01T10:56:07;92574.13;;;7.27;100.00
53522;BME280;39398;48.382;9.802;2023-04-01T11:07:16;92578.81;;;7.12;100.00
53522;BME280;39398;48.382;9.802;2023-04-01T11:12:57;92582.66;;;6.96;100.00
53522;BME280;39398;48.382;9.802;2023-04-01T11:18:41;92595.75;;;6.96;100.00
53522;BME280;39398;48.382;9.802;2023-04-01T11:23:58;92595.75;;;6.96;100.00
53522;BME280;39398;48.382;9.802;2023-04-01T11:34:56;92611.69;;;6.94;100.00
53522;BME280;39398;48.382;9.802;2023-04-01T11:40:14;92610.47;;;7.10;100.00
53522;BME280;39398;48.382;9.802;2023-04-01T11:45:32;92612.88;;;6.72;100.00
53522;BME280;39398;48.382;9.802;2023-04-01T11:50:44;92615.53;;;7.05;100.00
53522;BME280;39398;48.382;9.802;2023-04-01T11:56:13;92613.50;;;7.20;100.00
53522;BME280;39398;48.382;9.802;2023-04-01T12:01:29;92621.38;;;7.47;100.00
53522;BME280;39398;48.382;9.802;2023-04-01T12:06:41;92609.44;;;7.51;100.00
53522;BME280;39398;48.382;9.802;2023-04-01T12:11:52;92615.25;;;7.73;100.00
53522;BME280;39398;48.382;9.802;2023-04-01T12:17:07;92626.28;;;8.02;100.00
53522;BME280;39398;48.382;9.802;2023-04-01T12:22:23;92622.44;;;8.04;100.00
53522;BME280;39398;48.382;9.802;2023-04-01T12:27:35;92625.81;;;8.18;100.00
53522;BME280;39398;48.382;9.802;2023-04-01T12:32:46;92626.22;;;8.15;100.00
53522;BME280;39398;48.382;9.802;2023-04-01T12:37:55;92631.28;;;8.10;100.00
53522;BME280;39398;48.382;9.802;2023-04-01T12:43:17;92623.84;;;8.00;100.00
53522;BME280;39398;48.382;9.802;2023-04-01T12:48:55;92626.22;;;8.15;100.00
53522;BME280;39398;48.382;9.802;2023-04-01T12:54:22;92616.47;;;8.29;100.00
53522;BME280;39398;48.382;9.802;2023-04-01T12:59:44;92621.78;;;8.15;100.00
53522;BME280;39398;48.382;9.802;2023-04-01T13:05:13;92617.13;;;8.18;100.00
53522;BME280;39398;48.382;9.802;2023-04-01T13:10:30;92622.94;;;8.40;100.00
53522;BME280;39398;48.382;9.802;2023-04-01T13:15:39;92625.13;;;8.43;100.00
53522;BME280;39398;48.382;9.802;2023-04-01T13:20:44;92630.94;;;8.51;100.00
53522;BME280;39398;48.382;9.802;2023-04-01T13:25:57;92635.66;;;8.29;100.00
53522;BME280;39398;48.382;9.802;2023-04-01T13:31:36;92645.19;;;8.30;100.00
53522;BME280;39398;48.382;9.802;2023-04-01T13:36:50;92644.28;;;8.56;100.00
53522;BME280;39398;48.382;9.802;2023-04-01T13:42:10;92646.56;;;8.46;100.00
53522;BME280;39398;48.382;9.802;2023-04-01T13:53:24;92645.34;;;8.49;100.00
53522;BME280;39398;48.382;9.802;2023-04-01T14:10:02;92639.69;;;8.38;100.00
53522;BME280;39398;48.382;9.802;2023-04-01T14:15:28;92643.56;;;8.29;100.00
53522;BME280;39398;48.382;9.802;2023-04-01T14:20:38;92656.69;;;8.43;100.00
53522;BME280;39398;48.382;9.802;2023-04-01T14:26:02;92660.47;;;8.53;100.00
53522;BME280;39398;48.382;9.802;2023-04-01T14:31:23;92663.34;;;8.45;100.00
53522;BME280;39398;48.382;9.802;2023-04-01T14:36:43;92664.38;;;8.44;100.00
53522;BME280;39398;48.382;9.802;2023-04-01T14:41:59;92670.25;;;8.46;100.00
53522;BME280;39398;48.382;9.802;2023-04-01T14:47:39;92666.16;;;8.50;100.00
53522;BME280;39398;48.382;9.802;2023-04-01T14:52:52;92664.94;;;8.53;100.00
53522;BME280;39398;48.382;9.802;2023-04-01T14:58:16;92671.97;;;8.66;100.00
53522;BME280;39398;48.382;9.802;2023-04-01T15:03:22;92673.22;;;8.95;100.00
53522;BME280;39398;48.382;9.802;2023-04-01T15:08:27;92679.97;;;8.77;100.00
53522;BME280;39398;48.382;9.802;2023-04-01T15:13:57;92672.13;;;8.71;100.00
53522;BME280;39398;48.382;9.802;2023-04-01T15:19:12;92666.66;;;8.72;100.00
53522;BME280;39398;48.382;9.802;2023-04-01T15:24:21;92680.16;;;8.82;100.00
53522;BME280;39398;48.382;9.802;2023-04-01T15:34:55;92686.38;;;8.56;100.00
53522;BME280;39398;48.382;9.802;2023-04-01T15:40:07;92686.53;;;8.68;100.00
53522;BME280;39398;48.382;9.802;2023-04-01T15:45:34;92688.31;;;8.68;100.00
53522;BME280;39398;48.382;9.802;2023-04-01T15:51:02;92697.50;;;8.52;100.00
53522;BME280;39398;48.382;9.802;2023-04-01T15:56:26;92691.41;;;8.58;100.00
53522;BME280;39398;48.382;9.802;2023-04-01T16:01:37;92694.00;;;8.65;100.00
53522;BME280;39398;48.382;9.802;2023-04-01T16:12:15;92705.84;;;8.49;100.00
53522;BME280;39398;48.382;9.802;2023-04-01T16:17:29;92707.59;;;8.55;100.00
53522;BME280;39398;48.382;9.802;2023-04-01T16:22:34;92702.75;;;8.52;100.00
53522;BME280;39398;48.382;9.802;2023-04-01T16:27:44;92712.03;;;8.61;100.00
53522;BME280;39398;48.382;9.802;2023-04-01T16:32:54;92713.09;;;8.53;100.00
53522;BME280;39398;48.382;9.802;2023-04-01T16:38:02;92716.34;;;8.49;100.00
53522;BME280;39398;48.382;9.802;2023-04-01T16:43:09;92722.56;;;8.61;100.00
53522;BME280;39398;48.382;9.802;2023-04-01T16:48:14;92723.88;;;8.25;100.00
53522;BME280;39398;48.382;9.802;2023-04-01T16:53:19;92727.47;;;8.37;100.00
53522;BME280;39398;48.382;9.802;2023-04-01T16:58:27;92735.59;;;8.36;100.00
53522;BME280;39398;48.382;9.802;2023-04-01T17:03:39;92739.44;;;8.27;100.00
53522;BME280;39398;48.382;9.802;2023-04-01T17:08:54;92745.72;;;8.19;100.00
53522;BME280;39398;48.382;9.802;2023-04-01T17:14:07;92741.50;;;8.05;100.00
53522;BME280;39398;48.382;9.802;2023-04-01T17:19:25;92733.19;;;8.21;100.00
53522;BME280;39398;48.382;9.802;2023-04-01T17:24:38;92737.84;;;8.12;100.00
53522;BME280;39398;48.382;9.802;2023-04-01T17:29:59;92744.53;;;8.15;100.00
53522;BME280;39398;48.382;9.802;2023-04-01T17:35:08;92750.22;;;7.99;100.00
53522;BME280;39398;48.382;9.802;2023-04-01T17:40:27;92747.78;;;7.97;100.00
53522;BME280;39398;48.382;9.802;2023-04-01T17:45:37;92753.44;;;7.94;100.00
53522;BME280;39398;48.382;9.802;2023-04-01T17:50:53;92762.34;;;7.93;100.00
53522;BME280;39398;48.382;9.802;2023-04-01T17:56:14;92752.66;;;7.87;100.00
53522;BME280;39398;48.382;9.802;2023-04-01T18:01:26;92766.59;;;7.54;100.00
53522;BME280;39398;48.382;9.802;2023-04-01T18:06:36;92765.78;;;7.80;100.00
53522;BME280;39398;48.382;9.802;2023-04-01T18:11:56;92771.66;;;7.82;100.00
53522;BME280;39398;48.382;9.802;2023-04-01T18:17:11;92777.72;;;7.56;100.00
53522;BME280;39398;48.382;9.802;2023-04-01T18:22:19;92790.84;;;7.56;100.00
53522;BME280;39398;48.382;9.802;2023-04-01T18:27:24;92792.25;;;7.59;100.00
53522;BME280;39398;48.382;9.802;2023-04-01T18:32:34;92788.00;;;7.51;100.00
53522;BME280;39398;48.382;9.802;2023-04-01T18:37:42;92794.84;;;7.45;100.00
53522;BME280;39398;48.382;9.802;2023-04-01T18:42:55;92801.34;;;7.56;100.00
53522;BME280;39398;48.382;9.802;2023-04-01T18:48:06;92806.16;;;7.39;100.00
53522;BME280;39398;48.382;9.802;2023-04-01T18:53:20;92815.88;;;7.45;100.00
53522;BME280;39398;48.382;9.802;2023-04-01T18:58:26;92822.91;;;7.25;100.00
53522;BME280;39398;48.382;9.802;2023-04-01T19:03:34;92827.50;;;7.16;100.00
53522;BME280;39398;48.382;9.802;2023-04-01T19:08:42;92826.28;;;7.06;100.00
53522;BME280;39398;48.382;9.802;2023-04-01T19:13:51;92829.38;;;7.29;100.00
53522;BME280;39398;48.382;9.802;2023-04-01T19:19:10;92837.84;;;7.25;100.00
53522;BME280;39398;48.382;9.802;2023-04-01T19:24:33;92846.09;;;7.15;100.00
53522;BME280;39398;48.382;9.802;2023-04-01T19:29:50;92843.25;;;7.10;100.00
53522;BME280;39398;48.382;9.802;2023-04-01T19:34:58;92857.16;;;7.10;100.00
53522;BME280;39398;48.382;9.802;2023-04-01T19:40:29;92860.97;;;7.01;100.00
53522;BME280;39398;48.382;9.802;2023-04-01T19:45:38;92869.13;;;7.19;100.00
53522;BME280;39398;48.382;9.802;2023-04-01T19:50:47;92870.75;;;7.27;100.00
53522;BME280;39398;48.382;9.802;2023-04-01T19:55:59;92882.63;;;7.16;100.00
53522;BME280;39398;48.382;9.802;2023-04-01T20:01:03;92892.38;;;7.29;100.00
53522;BME280;39398;48.382;9.802;2023-04-01T20:06:11;92892.22;;;7.37;100.00
53522;BME280;39398;48.382;9.802;2023-04-01T20:11:28;92897.88;;;7.41;100.00
53522;BME280;39398;48.382;9.802;2023-04-01T20:16:49;92897.84;;;7.34;100.00
53522;BME280;39398;48.382;9.802;2023-04-01T20:21:51;92899.69;;;7.40;100.00
53522;BME280;39398;48.382;9.802;2023-04-01T20:27:00;92900.25;;;7.29;100.00
53522;BME280;39398;48.382;9.802;2023-04-01T20:32:07;92914.13;;;7.16;100.00
53522;BME280;39398;48.382;9.802;2023-04-01T20:37:23;92910.09;;;7.20;100.00
53522;BME280;39398;48.382;9.802;2023-04-01T20:42:46;92906.16;;;7.38;100.00
53522;BME280;39398;48.382;9.802;2023-04-01T20:48:03;92909.13;;;7.21;100.00
53522;BME280;39398;48.382;9.802;2023-04-01T20:53:16;92902.59;;;7.11;100.00
53522;BME280;39398;48.382;9.802;2023-04-01T20:58:23;92912.63;;;7.01;100.00
53522;BME280;39398;48.382;9.802;2023-04-01T21:03:33;92920.25;;;6.89;100.00
53522;BME280;39398;48.382;9.802;2023-04-01T21:09:02;92918.72;;;6.73;100.00
53522;BME280;39398;48.382;9.802;2023-04-01T21:14:31;92920.78;;;6.78;100.00
53522;BME280;39398;48.382;9.802;2023-04-01T21:19:52;92927.16;;;6.62;100.00
53522;BME280;39398;48.382;9.802;2023-04-01T21:25:03;92934.59;;;6.58;100.00
53522;BME280;39398;48.382;9.802;2023-04-01T21:30:27;92935.75;;;6.49;100.00
53522;BME280;39398;48.382;9.802;2023-04-01T21:35:38;92935.97;;;6.26;100.00
53522;BME280;39398;48.382;9.802;2023-04-01T21:40:53;92936.25;;;6.38;100.00
53522;BME280;39398;48.382;9.802;2023-04-01T21:46:17;92943.47;;;6.29;100.00
53522;BME280;39398;48.382;9.802;2023-04-01T21:51:55;92947.81;;;6.22;100.00
53522;BME280;39398;48.382;9.802;2023-04-01T21:57:31;92952.72;;;5.89;100.00
53522;BME280;39398;48.382;9.802;2023-04-01T22:03:14;92956.31;;;6.02;100.00
53522;BME280;39398;48.382;9.802;2023-04-01T22:08:38;92958.19;;;6.09;100.00
53522;BME280;39398;48.382;9.802;2023-04-01T22:13:48;92961.44;;;6.11;100.00
53522;BME280;39398;48.382;9.802;2023-04-01T22:18:59;92960.97;;;5.86;100.00
53522;BME280;39398;48.382;9.802;2023-04-01T22:24:07;92963.56;;;6.00;100.00
53522;BME280;39398;48.382;9.802;2023-04-01T22:29:15;92978.84;;;5.97;100.00
53522;BME280;39398;48.382;9.802;2023-04-01T22:34:22;92981.31;;;6.05;100.00
53522;BME280;39398;48.382;9.802;2023-04-01T22:39:37;92979.44;;;5.99;100.00
53522;BME280;39398;48.382;9.802;2023-04-01T22:44:52;92990.38;;;6.02;100.00
53522;BME280;39398;48.382;9.802;2023-04-01T22:50:03;92987.78;;;5.88;100.00
53522;BME280;39398;48.382;9.802;2023-04-01T22:55:13;92996.56;;;5.95;100.00
53522;BME280;39398;48.382;9.802;2023-04-01T23:00:20;93004.31;;;5.88;100.00
53522;BME280;39398;48.382;9.802;2023-04-01T23:05:26;92994.94;;;5.94;100.00
53522;BME280;39398;48.382;9.802;2023-04-01T23:10:39;92996.56;;;5.95;100.00
53522;BME280;39398;48.382;9.802;2023-04-01T23:15:43;93001.78;;;5.95;100.00
53522;BME280;39398;48.382;9.802;2023-04-01T23:21:05;93010.88;;;5.99;100.00
53522;BME280;39398;48.382;9.802;2023-04-01T23:26:13;93013.06;;;5.80;100.00
53522;BME280;39398;48.382;9.802;2023-04-01T23:31:31;93014.41;;;5.91;100.00
53522;BME280;39398;48.382;9.802;2023-04-01T23:36:38;93015.06;;;5.93;100.00
53522;BME280;39398;48.382;9.802;2023-04-01T23:41:41;93023.88;;;5.92;100.00
53522;BME280;39398;48.382;9.802;2023-04-01T23:46:44;93032.22;;;5.96;100.00
53522;BME280;39398;48.382;9.802;2023-04-01T23:51:53;93041.34;;;5.85;100.00
53522;BME280;39398;48.382;9.802;2023-04-01T23:56:56;93040.09;;;5.81;100.00
